Time;durP1;ratioP1;P1;durP2;ratioP2;P2;SDS_P1;SDS_P2;PMS_P1;PMS_P2;Temp;Humidity;BMP_temperature;BMP_pressure;BME280_temperature;BME280_humidity;BME280_pressure;Samples;Min_cycle;Max_cycle;Signal;HPM_P1;HPM_P2
2023/05/22 00:00:54;;;;;;;745.40;656.97;;;;;;;;;;5013757;28;20432;-85
2023/05/22 00:03:23;;;;;;;753.10;668.10;;;;;;;;;;4990800;28;20475;-84
2023/05/22 00:05:49;;;;;;;759.83;661.43;;;;;;;;;;5017900;28;20478;-83
2023/05/22 00:08:15;;;;;;;754.03;661.97;;;;;;;;;;5007781;28;20468;-85
2023/05/22 00:10:41;;;;;;;767.60;680.17;;;;;;;;;;5029642;28;20527;-85
2023/05/22 00:13:07;;;;;;;779.57;693.63;;;;;;;;;;5002470;28;20466;-85
2023/05/22 00:15:33;;;;;;;765.87;675.57;;;;;;;;;;5009853;28;20470;-86
2023/05/22 00:17:59;;;;;;;762.13;680.27;;;;;;;;;;4999693;28;20996;-85
2023/05/22 00:20:26;;;;;;;742.87;667.80;;;;;;;;;;5009979;28;20419;-86
2023/05/22 00:22:53;;;;;;;725.47;653.87;;;;;;;;;;4999527;28;20451;-85
2023/05/22 00:25:19;;;;;;;133.97;127.07;;;;;;;;;;5010761;28;20516;-84
2023/05/22 00:27:45;;;;;;;24.80;22.43;;;;;;;;;;5000409;28;20452;-84
2023/05/22 00:30:11;;;;;;;22.37;20.40;;;;;;;;;;4990028;28;20443;-84
2023/05/22 00:32:37;;;;;;;22.73;20.50;;;;;;;;;;4994434;28;20470;-85
2023/05/22 00:35:03;;;;;;;20.27;18.57;;;;;;;;;;5004149;28;20431;-85
2023/05/22 00:37:29;;;;;;;20.17;18.30;;;;;;;;;;5011108;28;20458;-85
2023/05/22 00:39:55;;;;;;;20.27;18.53;;;;;;;;;;5010139;28;20428;-84
2023/05/22 00:42:22;;;;;;;20.57;18.67;;;;;;;;;;5005347;28;20467;-84
2023/05/22 00:44:48;;;;;;;19.17;17.47;;;;;;;;;;5010236;28;20435;-85
2023/05/22 00:47:14;;;;;;;20.27;17.97;;;;;;;;;;5004951;28;20462;-84
2023/05/22 00:49:41;;;;;;;19.20;17.47;;;;;;;;;;5005013;28;20935;-85
2023/05/22 00:52:07;;;;;;;21.00;18.90;;;;;;;;;;5005373;28;20455;-85
2023/05/22 00:54:34;;;;;;;20.47;18.47;;;;;;;;;;5008866;28;21154;-85
2023/05/22 00:57:01;;;;;;;20.73;18.63;;;;;;;;;;4995266;28;20451;-84
2023/05/22 00:59:28;;;;;;;19.90;18.00;;;;;;;;;;5026486;28;20522;-86
2023/05/22 01:01:55;;;;;;;19.70;17.87;;;;;;;;;;5040165;28;20430;-84
2023/05/22 01:04:20;;;;;;;19.30;17.53;;;;;;;;;;5021634;28;20478;-84
2023/05/22 01:06:46;;;;;;;19.37;17.67;;;;;;;;;;5010780;28;20462;-85
2023/05/22 01:09:13;;;;;;;19.27;17.60;;;;;;;;;;5014057;28;20547;-84
2023/05/22 01:12:01;;;;;;;34.97;31.63;;;;;;;;;;4990071;28;20815;-84
2023/05/22 01:14:40;;;;;;;19.30;17.50;;;;;;;;;;5006034;28;20403;-85
2023/05/22 01:17:13;;;;;;;22.00;18.60;;;;;;;;;;5009053;28;20470;-84
2023/05/22 01:19:52;;;;;;;21.03;19.13;;;;;;;;;;5006651;28;20414;-84
2023/05/22 01:22:20;;;;;;;22.00;20.00;;;;;;;;;;5010151;28;20435;-85
2023/05/22 01:24:55;;;;;;;21.88;19.88;;;;;;;;;;5008758;28;20407;-85
2023/05/22 01:27:24;;;;;;;19.70;18.00;;;;;;;;;;5004601;28;20251;-86
2023/05/22 01:30:09;;;;;;;19.00;17.30;;;;;;;;;;5018630;28;20423;-86
2023/05/22 01:32:36;;;;;;;19.40;17.70;;;;;;;;;;4995820;28;20507;-87
2023/05/22 01:35:04;;;;;;;21.10;19.30;;;;;;;;;;5010912;28;20428;-87
2023/05/22 01:37:31;;;;;;;22.17;20.17;;;;;;;;;;5009457;28;20865;-86
2023/05/22 01:39:57;;;;;;;20.23;18.43;;;;;;;;;;5011576;28;20442;-84
2023/05/22 01:42:23;;;;;;;22.73;20.63;;;;;;;;;;5012323;28;20663;-83
2023/05/22 01:44:50;;;;;;;20.00;18.20;;;;;;;;;;4995547;28;20467;-84
2023/05/22 01:47:16;;;;;;;22.50;20.40;;;;;;;;;;5019040;28;20442;-85
2023/05/22 01:49:43;;;;;;;24.30;22.03;;;;;;;;;;5014397;28;20412;-84
2023/05/22 01:52:12;;;;;;;20.90;19.10;;;;;;;;;;5017640;28;20439;-85
2023/05/22 01:54:44;;;;;;;22.93;20.67;;;;;;;;;;5012330;28;20431;-86
2023/05/22 01:57:17;;;;;;;19.87;17.97;;;;;;;;;;5021535;28;20470;-85
2023/05/22 01:59:47;;;;;;;20.67;18.77;;;;;;;;;;4991131;28;20470;-85
2023/05/22 02:02:15;;;;;;;22.87;20.60;;;;;;;;;;5014737;28;21052;-85
2023/05/22 02:04:44;;;;;;;20.83;18.80;;;;;;;;;;5010954;28;20431;-85
2023/05/22 02:07:11;;;;;;;22.00;19.70;;;;;;;;;;5013655;28;20538;-85
2023/05/22 02:09:38;;;;;;;23.70;21.55;;;;;;;;;;5005398;28;20895;-84
2023/05/22 02:12:05;;;;;;;24.20;21.80;;;;;;;;;;5020617;28;20668;-84
2023/05/22 02:14:31;;;;;;;22.80;20.70;;;;;;;;;;5004676;28;20443;-84
2023/05/22 02:16:57;;;;;;;22.30;20.20;;;;;;;;;;5013109;28;20858;-85
2023/05/22 02:19:23;;;;;;;21.83;19.73;;;;;;;;;;5015814;28;20497;-84
2023/05/22 02:21:49;;;;;;;21.27;19.40;;;;;;;;;;4991347;28;20395;-85
2023/05/22 02:24:15;;;;;;;21.92;19.92;;;;;;;;;;5005202;28;20856;-84
2023/05/22 02:26:42;;;;;;;32.97;29.63;;;;;;;;;;5006275;28;20215;-84
2023/05/22 02:29:08;;;;;;;20.70;18.73;;;;;;;;;;5014975;28;20494;-84
2023/05/22 02:31:34;;;;;;;37.17;33.63;;;;;;;;;;5016152;28;20581;-84
2023/05/22 02:34:00;;;;;;;22.10;19.90;;;;;;;;;;5019683;28;20940;-84
2023/05/22 02:36:26;;;;;;;31.00;28.30;;;;;;;;;;5007197;28;20486;-85
2023/05/22 02:38:54;;;;;;;21.93;19.90;;;;;;;;;;5013927;28;20469;-84
2023/05/22 02:41:20;;;;;;;21.57;19.30;;;;;;;;;;5011136;28;20439;-83
2023/05/22 02:43:46;;;;;;;25.43;20.77;;;;;;;;;;5013928;28;20512;-84
2023/05/22 02:46:12;;;;;;;22.87;20.80;;;;;;;;;;5012244;28;20430;-84
2023/05/22 02:48:38;;;;;;;22.53;20.43;;;;;;;;;;5011220;28;20935;-86
2023/05/22 02:51:04;;;;;;;22.50;20.20;;;;;;;;;;5021706;28;20428;-85
2023/05/22 02:53:32;;;;;;;20.98;19.02;;;;;;;;;;5034308;28;20427;-85
2023/05/22 02:55:58;;;;;;;22.70;20.40;;;;;;;;;;5039317;28;20189;-84
2023/05/22 02:58:24;;;;;;;23.50;20.90;;;;;;;;;;5029227;28;20446;-85
2023/05/22 03:00:51;;;;;;;22.17;19.97;;;;;;;;;;5011406;28;20943;-85
2023/05/22 03:03:18;;;;;;;21.05;19.15;;;;;;;;;;5002046;28;20439;-85
2023/05/22 03:05:44;;;;;;;21.23;19.23;;;;;;;;;;5006496;28;21047;-83
2023/05/22 03:08:11;;;;;;;22.05;20.10;;;;;;;;;;5006145;28;20417;-84
2023/05/22 03:10:37;;;;;;;22.90;20.80;;;;;;;;;;5008470;28;20380;-84
2023/05/22 03:13:03;;;;;;;23.65;21.25;;;;;;;;;;5001123;28;20437;-85
2023/05/22 03:15:29;;;;;;;20.63;18.53;;;;;;;;;;4995959;28;20251;-82
2023/05/22 03:17:55;;;;;;;21.77;19.77;;;;;;;;;;5009832;28;20903;-84
2023/05/22 03:20:21;;;;;;;48.80;44.53;;;;;;;;;;5005242;28;20906;-78
2023/05/22 03:22:47;;;;;;;20.20;18.20;;;;;;;;;;5006207;28;20703;-77
2023/05/22 03:25:13;;;;;;;43.67;39.67;;;;;;;;;;5003255;28;20423;-78
2023/05/22 03:27:40;;;;;;;22.73;20.37;;;;;;;;;;4997628;28;20495;-81
2023/05/22 03:30:06;;;;;;;38.37;34.77;;;;;;;;;;5013577;28;20839;-83
2023/05/22 03:32:36;;;;;;;22.60;20.47;;;;;;;;;;5006730;28;20458;-84
2023/05/22 03:35:02;;;;;;;31.03;28.17;;;;;;;;;;5005539;28;20432;-84
2023/05/22 03:37:28;;;;;;;22.58;20.38;;;;;;;;;;5021270;28;20412;-84
2023/05/22 03:39:54;;;;;;;23.40;19.57;;;;;;;;;;5008568;28;20185;-83
2023/05/22 03:42:20;;;;;;;22.70;20.40;;;;;;;;;;5015420;28;20442;-84
2023/05/22 03:44:48;;;;;;;23.03;20.57;;;;;;;;;;5008559;28;20443;-84
2023/05/22 03:47:14;;;;;;;21.33;19.13;;;;;;;;;;5029478;28;20530;-84
2023/05/22 03:49:40;;;;;;;22.70;20.42;;;;;;;;;;5027665;28;20405;-83
2023/05/22 03:52:06;;;;;;;25.47;22.80;;;;;;;;;;5028301;28;20421;-83
2023/05/22 03:54:32;;;;;;;23.33;20.93;;;;;;;;;;5015600;28;20440;-84
2023/05/22 03:56:58;;;;;;;22.08;19.90;;;;;;;;;;4997273;28;20905;-83
2023/05/22 03:59:24;;;;;;;24.57;22.37;;;;;;;;;;5013937;28;20220;-87
2023/05/22 04:01:50;;;;;;;22.60;20.50;;;;;;;;;;5019367;28;20434;-81
2023/05/22 04:04:16;;;;;;;25.87;23.27;;;;;;;;;;5005886;28;20421;-79
2023/05/22 04:06:42;;;;;;;23.40;21.20;;;;;;;;;;5009239;28;20446;-78
2023/05/22 04:09:10;;;;;;;24.40;22.00;;;;;;;;;;5020498;28;20486;-81
2023/05/22 04:11:38;;;;;;;21.87;19.93;;;;;;;;;;5015209;28;20841;-84
2023/05/22 04:14:04;;;;;;;22.40;20.20;;;;;;;;;;4996691;28;20405;-83
2023/05/22 04:16:30;;;;;;;23.20;21.10;;;;;;;;;;5010755;28;20513;-84
2023/05/22 04:18:56;;;;;;;23.77;21.38;;;;;;;;;;5012217;28;20467;-85
2023/05/22 04:21:23;;;;;;;24.80;22.30;;;;;;;;;;5006027;28;20698;-85
2023/05/22 04:23:49;;;;;;;23.87;20.83;;;;;;;;;;5004791;28;20432;-84
2023/05/22 04:26:16;;;;;;;23.50;21.20;;;;;;;;;;4992480;28;20546;-83
2023/05/22 04:28:44;;;;;;;23.47;21.20;;;;;;;;;;5005991;28;20400;-83
2023/05/22 04:31:11;;;;;;;35.40;32.10;;;;;;;;;;5004256;28;21313;-84
2023/05/22 04:33:38;;;;;;;24.93;22.33;;;;;;;;;;5012370;28;20447;-86
2023/05/22 04:36:05;;;;;;;24.60;22.27;;;;;;;;;;5014435;28;20603;-79
2023/05/22 04:38:35;;;;;;;25.57;22.97;;;;;;;;;;5008042;28;20755;-79
2023/05/22 04:41:01;;;;;;;23.07;20.77;;;;;;;;;;4990688;28;20527;-84
2023/05/22 04:43:28;;;;;;;23.20;21.10;;;;;;;;;;5014436;28;20565;-84
2023/05/22 04:45:55;;;;;;;22.73;20.58;;;;;;;;;;5015417;28;20402;-83
2023/05/22 04:48:21;;;;;;;23.92;21.73;;;;;;;;;;5014145;28;20495;-84
2023/05/22 04:50:50;;;;;;;23.85;21.55;;;;;;;;;;5036297;28;20403;-85
2023/05/22 04:53:17;;;;;;;21.20;19.30;;;;;;;;;;5043551;28;20408;-80
2023/05/22 04:55:43;;;;;;;23.40;21.23;;;;;;;;;;5017152;28;20418;-80
2023/05/22 04:58:09;;;;;;;22.00;20.00;;;;;;;;;;4990787;28;20411;-81
2023/05/22 05:00:35;;;;;;;22.85;20.77;;;;;;;;;;4981279;28;20416;-82
2023/05/22 05:03:01;;;;;;;21.00;19.00;;;;;;;;;;5002503;28;20439;-84
2023/05/22 05:05:27;;;;;;;21.52;19.52;;;;;;;;;;5001466;28;20406;-83
2023/05/22 05:07:53;;;;;;;21.95;19.92;;;;;;;;;;4999729;28;20881;-83
2023/05/22 05:10:19;;;;;;;;;;;;;;;;;;5010774;28;20159;-83
2023/05/22 05:12:45;;;;;;;;;;;;;;;;;;5009178;28;19955;-83
2023/05/22 05:15:11;;;;;;;25.23;22.77;;;;;;;;;;5018932;28;20400;-84
2023/05/22 05:17:37;;;;;;;23.05;20.85;;;;;;;;;;5013375;28;20503;-82
2023/05/22 05:20:05;;;;;;;;;;;;;;;;;;4997612;28;20033;-81
2023/05/22 05:22:31;;;;;;;;;;;;;;;;;;5003230;28;19906;-83
2023/05/22 05:24:57;;;;;;;;;;;;;;;;;;5002534;28;19997;-83
2023/05/22 05:27:23;;;;;;;;;;;;;;;;;;5003984;28;19905;-84
2023/05/22 05:29:49;;;;;;;;;;;;;;;;;;5012513;28;19909;-84
2023/05/22 05:32:15;;;;;;;;;;;;;;;;;;5014958;28;19912;-83
2023/05/22 05:34:41;;;;;;;;;;;;;;;;;;4990468;28;19992;-82
2023/05/22 05:37:07;;;;;;;;;;;;;;;;;;5010508;28;19917;-85
2023/05/22 05:39:33;;;;;;;;;;;;;;;;;;5009190;28;19920;-85
2023/05/22 05:41:59;;;;;;;;;;;;;;;;;;5011380;28;20229;-83
2023/05/22 05:44:25;;;;;;;;;;;;;;;;;;5016987;28;19909;-83
2023/05/22 05:46:51;;;;;;;;;;;;;;;;;;5014399;28;19967;-80
2023/05/22 05:49:17;;;;;;;;;;;;;;;;;;4998579;28;20486;-80
2023/05/22 05:51:43;;;;;;;;;;;;;;;;;;5006555;28;19920;-84
2023/05/22 05:54:09;;;;;;;24.10;21.70;;;;;;;;;;5014017;28;19917;-84
2023/05/22 05:56:36;;;;;;;;;;;;;;;;;;5009231;28;20288;-81
2023/05/22 05:59:02;;;;;;;;;;;;;;;;;;5010396;28;19910;-81
2023/05/22 06:01:30;;;;;;;;;;;;;;;;;;5012411;28;20668;-84
2023/05/22 06:03:58;;;;;;;;;;;;;;;;;;5019461;28;19913;-81
2023/05/22 06:06:24;;;;;;;;;;;;;;;;;;5006666;28;19964;-81
2023/05/22 06:08:51;;;;;;;;;;;;;;;;;;5023007;28;19917;-82
2023/05/22 06:11:17;;;;;;;;;;;;;;;;;;5011782;28;19916;-79
2023/05/22 06:13:42;;;;;;;;;;;;;;;;;;4990830;28;20367;-82
2023/05/22 06:16:08;;;;;;;;;;;;;;;;;;5009570;28;19924;-81
2023/05/22 06:18:35;;;;;;;22.30;20.17;;;;;;;;;;5009227;28;20892;-81
2023/05/22 06:21:01;;;;;;;24.13;21.73;;;;;;;;;;4989343;28;20647;-82
2023/05/22 06:23:27;;;;;;;19.47;17.70;;;;;;;;;;5005953;28;20463;-82
2023/05/22 06:25:54;;;;;;;29.43;26.87;;;;;;;;;;5007526;28;20467;-84
2023/05/22 06:28:20;;;;;;;18.53;16.90;;;;;;;;;;5016181;28;20400;-82
2023/05/22 06:30:46;;;;;;;33.03;29.90;;;;;;;;;;5006637;28;20440;-83
2023/05/22 06:33:13;;;;;;;19.37;17.63;;;;;;;;;;4988260;28;20524;-85
2023/05/22 06:35:39;;;;;;;21.20;19.20;;;;;;;;;;5011565;28;20463;-80
2023/05/22 06:38:05;;;;;;;21.87;19.80;;;;;;;;;;5010515;28;20468;-79
2023/05/22 06:40:31;;;;;;;22.43;20.40;;;;;;;;;;5012951;28;20426;-84
2023/05/22 06:42:58;;;;;;;22.20;20.00;;;;;;;;;;5015013;28;21065;-81
2023/05/22 06:45:24;;;;;;;23.33;21.27;;;;;;;;;;5011885;28;20439;-82
2023/05/22 06:47:53;;;;;;;24.33;22.13;;;;;;;;;;5033934;28;20683;-85
2023/05/22 06:50:20;;;;;;;27.13;21.87;;;;;;;;;;5034191;28;20426;-85
2023/05/22 06:52:46;;;;;;;21.33;19.40;;;;;;;;;;5039017;28;20837;-86
2023/05/22 06:55:12;;;;;;;19.13;17.53;;;;;;;;;;5031512;28;20430;-86
2023/05/22 06:57:38;;;;;;;21.70;19.80;;;;;;;;;;5028080;28;20486;-84
2023/05/22 07:00:10;;;;;;;22.50;20.27;;;;;;;;;;5019529;28;20443;-84
2023/05/22 07:02:36;;;;;;;22.87;20.67;;;;;;;;;;5020497;28;20467;-86
2023/05/22 07:05:02;;;;;;;24.57;22.43;;;;;;;;;;5026278;28;20419;-86
2023/05/22 07:07:28;;;;;;;21.90;20.03;;;;;;;;;;5031209;28;20439;-84
2023/05/22 07:09:54;;;;;;;23.53;21.53;;;;;;;;;;5020634;28;20434;-82
2023/05/22 07:12:24;;;;;;;27.23;24.73;;;;;;;;;;5034923;28;20454;-85
2023/05/22 07:14:50;;;;;;;24.83;22.63;;;;;;;;;;5006453;28;20438;-86
2023/05/22 07:17:17;;;;;;;23.03;21.23;;;;;;;;;;5031445;28;20473;-87
2023/05/22 07:19:43;;;;;;;25.43;23.33;;;;;;;;;;5022623;28;20418;-86
2023/05/22 07:22:09;;;;;;;24.27;22.07;;;;;;;;;;5026026;28;20439;-87
2023/05/22 07:24:35;;;;;;;24.13;22.27;;;;;;;;;;5028393;28;20495;-86
2023/05/22 07:27:03;;;;;;;29.40;26.70;;;;;;;;;;5021739;28;20435;-86
2023/05/22 07:29:29;;;;;;;25.90;23.70;;;;;;;;;;5008988;28;20492;-82
2023/05/22 07:31:55;;;;;;;24.27;22.27;;;;;;;;;;5042673;28;20457;-85
2023/05/22 07:34:21;;;;;;;25.80;23.80;;;;;;;;;;5020578;28;20464;-85
2023/05/22 07:36:47;;;;;;;29.33;27.00;;;;;;;;;;5031035;28;20467;-85
2023/05/22 07:39:13;;;;;;;32.17;29.90;;;;;;;;;;5000701;28;20930;-85
2023/05/22 07:41:40;;;;;;;40.70;37.80;;;;;;;;;;5014878;28;20662;-85
2023/05/22 07:44:06;;;;;;;43.77;40.67;;;;;;;;;;5002471;28;20424;-85
2023/05/22 07:46:34;;;;;;;55.43;51.83;;;;;;;;;;4997779;28;20799;-85
2023/05/22 07:49:00;;;;;;;21.07;19.37;;;;;;;;;;5024258;28;20451;-85
2023/05/22 07:51:26;;;;;;;25.03;22.93;;;;;;;;;;5020702;28;20462;-84
2023/05/22 07:53:52;;;;;;;39.10;35.80;;;;;;;;;;5020202;28;20440;-84
2023/05/22 07:56:19;;;;;;;47.23;43.83;;;;;;;;;;5020146;28;20475;-84
2023/05/22 07:58:47;;;;;;;32.70;29.93;;;;;;;;;;5008465;28;20466;-86
2023/05/22 08:01:14;;;;;;;34.80;31.73;;;;;;;;;;5018048;28;20429;-84
2023/05/22 08:03:40;;;;;;;36.27;33.13;;;;;;;;;;5025069;28;20447;-85
2023/05/22 08:06:06;;;;;;;51.23;46.40;;;;;;;;;;4999227;28;20436;-84
2023/05/22 08:08:33;;;;;;;53.03;48.43;;;;;;;;;;5013661;28;20444;-84
2023/05/22 08:10:59;;;;;;;50.60;45.93;;;;;;;;;;5016498;28;20431;-84
2023/05/22 08:13:25;;;;;;;45.23;40.50;;;;;;;;;;4999305;28;20447;-85
2023/05/22 08:15:51;;;;;;;55.30;46.13;;;;;;;;;;5027533;28;20639;-86
2023/05/22 08:18:17;;;;;;;53.77;46.83;;;;;;;;;;5004853;28;20466;-83
2023/05/22 08:20:45;;;;;;;58.20;48.70;;;;;;;;;;5009037;28;21003;-81
2023/05/22 08:23:11;;;;;;;63.73;52.47;;;;;;;;;;5002603;28;20510;-82
2023/05/22 08:25:37;;;;;;;72.90;56.63;;;;;;;;;;5006234;28;20430;-82
2023/05/22 08:28:03;;;;;;;65.50;52.60;;;;;;;;;;4998125;28;20463;-82
2023/05/22 08:30:29;;;;;;;69.23;56.00;;;;;;;;;;4999039;28;20472;-82
2023/05/22 08:32:55;;;;;;;74.20;55.87;;;;;;;;;;5009601;28;20473;-82
2023/05/22 08:35:21;;;;;;;74.80;60.13;;;;;;;;;;5003730;28;20911;-82
2023/05/22 08:37:47;;;;;;;72.10;58.43;;;;;;;;;;5013932;28;20793;-81
2023/05/22 08:40:14;;;;;;;68.50;54.03;;;;;;;;;;5006687;28;20411;-81
2023/05/22 08:42:40;;;;;;;66.37;52.93;;;;;;;;;;5006007;28;20863;-82
2023/05/22 08:45:07;;;;;;;75.50;58.67;;;;;;;;;;5015672;28;20825;-81
2023/05/22 08:47:36;;;;;;;69.50;57.13;;;;;;;;;;5021784;28;20526;-83
2023/05/22 08:50:02;;;;;;;68.37;60.27;;;;;;;;;;5033320;28;20442;-82
2023/05/22 08:52:33;;;;;;;65.60;56.87;;;;;;;;;;5008274;28;20501;-82
2023/05/22 08:54:59;;;;;;;67.20;55.40;;;;;;;;;;5005005;28;20429;-81
2023/05/22 08:57:25;;;;;;;69.63;62.50;;;;;;;;;;5005084;28;20471;-83
2023/05/22 08:59:52;;;;;;;82.03;74.13;;;;;;;;;;5014351;28;21077;-82
2023/05/22 09:02:18;;;;;;;88.77;80.30;;;;;;;;;;5011692;28;20431;-82
2023/05/22 09:04:44;;;;;;;61.30;50.40;;;;;;;;;;5003961;28;20423;-82
2023/05/22 09:07:10;;;;;;;69.60;55.87;;;;;;;;;;5016717;28;20451;-82
2023/05/22 09:09:36;;;;;;;64.13;53.43;;;;;;;;;;5006207;28;20431;-81
2023/05/22 09:12:02;;;;;;;132.37;122.47;;;;;;;;;;4993397;28;20455;-80
2023/05/22 09:14:37;;;;;;;69.67;61.80;;;;;;;;;;5010201;28;21068;-80
2023/05/22 09:17:03;;;;;;;65.73;56.33;;;;;;;;;;4984029;28;20953;-80
2023/05/22 09:19:29;;;;;;;75.97;60.30;;;;;;;;;;5007848;28;20427;-81
2023/05/22 09:22:02;;;;;;;59.93;53.03;;;;;;;;;;4994317;28;20461;-79
2023/05/22 09:24:28;;;;;;;59.80;52.70;;;;;;;;;;4987179;28;20982;-79
2023/05/22 09:26:54;;;;;;;74.00;66.30;;;;;;;;;;5003353;28;20527;-82
2023/05/22 09:29:20;;;;;;;64.23;49.60;;;;;;;;;;5012251;28;20989;-79
2023/05/22 09:31:46;;;;;;;66.40;59.27;;;;;;;;;;5001351;28;20774;-78
2023/05/22 09:34:13;;;;;;;51.97;46.63;;;;;;;;;;5010265;28;20491;-83
2023/05/22 09:36:40;;;;;;;52.57;47.27;;;;;;;;;;5026556;28;20489;-86
2023/05/22 09:39:06;;;;;;;51.17;45.97;;;;;;;;;;5032319;28;20431;-85
2023/05/22 09:41:37;;;;;;;47.77;42.93;;;;;;;;;;5025168;28;20420;-83
2023/05/22 09:44:13;;;;;;;41.80;37.70;;;;;;;;;;5023425;28;20430;-85
2023/05/22 09:46:40;;;;;;;37.13;33.47;;;;;;;;;;5021493;28;20439;-85
2023/05/22 09:49:06;;;;;;;41.00;37.10;;;;;;;;;;5021588;28;20481;-84
2023/05/22 09:51:33;;;;;;;42.50;38.10;;;;;;;;;;5029720;28;20435;-84
2023/05/22 09:54:02;;;;;;;42.33;37.97;;;;;;;;;;5017852;28;20447;-83
2023/05/22 09:56:30;;;;;;;45.97;41.33;;;;;;;;;;5023290;28;20507;-84
2023/05/22 09:58:57;;;;;;;39.33;35.17;;;;;;;;;;5006691;28;20431;-82
2023/05/22 10:01:24;;;;;;;40.90;36.70;;;;;;;;;;5027710;28;20573;-84
2023/05/22 10:03:51;;;;;;;40.87;36.87;;;;;;;;;;5031290;28;21174;-85
2023/05/22 10:06:18;;;;;;;50.67;46.23;;;;;;;;;;5037464;28;20438;-83
2023/05/22 10:08:48;;;;;;;260.03;246.87;;;;;;;;;;5038381;28;20449;-84
2023/05/22 10:11:16;;;;;;;133.47;125.80;;;;;;;;;;5022169;28;20795;-83
2023/05/22 10:13:46;;;;;;;45.17;41.30;;;;;;;;;;4998070;28;20555;-85
2023/05/22 10:16:14;;;;;;;57.70;53.00;;;;;;;;;;5009579;28;20561;-83
2023/05/22 10:18:41;;;;;;;128.67;122.07;;;;;;;;;;5003113;28;20478;-84
2023/05/22 10:21:07;;;;;;;117.57;110.67;;;;;;;;;;5029843;28;20430;-84
2023/05/22 10:23:34;;;;;;;86.43;80.50;;;;;;;;;;5016193;28;20513;-78
2023/05/22 10:26:00;;;;;;;43.67;39.67;;;;;;;;;;5010176;28;20601;-81
2023/05/22 10:28:49;;;;;;;88.00;81.93;;;;;;;;;;5003412;28;21018;-79
2023/05/22 10:31:26;;;;;;;224.13;212.57;;;;;;;;;;5006067;28;20827;-83
2023/05/22 10:33:55;;;;;;;302.87;287.57;;;;;;;;;;5002195;28;20955;-83
2023/05/22 10:36:42;;;;;;;272.10;257.80;;;;;;;;;;5013186;28;20474;-81
2023/05/22 10:39:08;;;;;;;306.73;291.17;;;;;;;;;;5012955;28;20772;-85
2023/05/22 10:41:34;;;;;;;343.83;326.10;;;;;;;;;;4990394;28;20436;-83
2023/05/22 10:44:02;;;;;;;282.17;268.30;;;;;;;;;;5031127;28;20520;-84
2023/05/22 10:46:32;;;;;;;176.93;167.50;;;;;;;;;;5007810;28;20814;-81
2023/05/22 10:48:58;;;;;;;66.47;61.73;;;;;;;;;;5010261;28;20466;-81
2023/05/22 10:51:25;;;;;;;69.03;64.27;;;;;;;;;;5005265;28;20461;-80
2023/05/22 10:53:52;;;;;;;206.17;195.97;;;;;;;;;;5013479;28;20443;-79
2023/05/22 10:56:18;;;;;;;338.67;321.97;;;;;;;;;;5007491;28;20464;-83
2023/05/22 10:58:58;;;;;;;292.33;277.90;;;;;;;;;;5005515;28;20432;-81
2023/05/22 11:01:27;;;;;;;198.53;189.10;;;;;;;;;;5000600;28;20503;-81
2023/05/22 11:03:56;;;;;;;75.33;70.40;;;;;;;;;;5005622;28;20444;-81
2023/05/22 11:06:31;;;;;;;51.97;48.17;;;;;;;;;;5010260;28;20492;-83
2023/05/22 11:08:57;;;;;;;49.67;45.83;;;;;;;;;;5021951;28;20505;-82
2023/05/22 11:11:27;;;;;;;338.57;321.37;;;;;;;;;;5018339;28;20428;-83
2023/05/22 11:13:53;;;;;;;473.90;447.57;;;;;;;;;;5017030;28;20431;-81
2023/05/22 11:16:21;;;;;;;387.17;366.37;;;;;;;;;;5014893;28;20522;-81
2023/05/22 11:18:47;;;;;;;148.27;139.77;;;;;;;;;;4996654;28;20511;-81
2023/05/22 11:21:13;;;;;;;68.87;63.53;;;;;;;;;;4991027;28;20865;-81
2023/05/22 11:23:39;;;;;;;79.43;73.43;;;;;;;;;;5005835;28;20554;-81
2023/05/22 11:26:19;;;;;;;53.07;48.00;;;;;;;;;;4993444;28;20455;-82
2023/05/22 11:28:49;;;;;;;51.40;47.20;;;;;;;;;;4994799;28;20969;-84
2023/05/22 11:31:15;;;;;;;61.27;57.07;;;;;;;;;;5014311;28;20435;-84
2023/05/22 11:33:41;;;;;;;104.03;98.30;;;;;;;;;;5007197;28;20590;-85
2023/05/22 11:36:08;;;;;;;61.07;56.87;;;;;;;;;;4998567;28;20475;-82
2023/05/22 11:38:34;;;;;;;55.13;50.60;;;;;;;;;;5005929;28;20428;-82
2023/05/22 11:41:00;;;;;;;58.40;53.77;;;;;;;;;;5005719;28;20446;-84
2023/05/22 11:43:32;;;;;;;60.73;56.03;;;;;;;;;;4993819;28;20810;-82
2023/05/22 11:46:06;;;;;;;53.20;48.73;;;;;;;;;;4997289;28;20451;-82
2023/05/22 11:48:32;;;;;;;71.20;66.03;;;;;;;;;;5007446;28;20842;-83
2023/05/22 11:50:58;;;;;;;53.80;49.20;;;;;;;;;;4999677;28;20443;-82
2023/05/22 11:53:24;;;;;;;56.20;51.60;;;;;;;;;;5004631;28;20427;-83
2023/05/22 11:55:50;;;;;;;49.37;45.30;;;;;;;;;;4998957;28;20467;-82
2023/05/22 11:58:17;;;;;;;83.43;77.70;;;;;;;;;;4980506;28;20430;-83
2023/05/22 12:00:43;;;;;;;142.30;134.47;;;;;;;;;;5011470;28;20455;-82
2023/05/22 12:03:10;;;;;;;215.80;205.13;;;;;;;;;;4983487;28;20432;-83
2023/05/22 12:05:36;;;;;;;89.97;83.90;;;;;;;;;;5009081;28;20942;-83
2023/05/22 12:08:03;;;;;;;86.10;80.67;;;;;;;;;;5000525;28;20522;-82
2023/05/22 12:10:32;;;;;;;59.60;55.57;;;;;;;;;;5018117;28;20801;-81
2023/05/22 12:12:58;;;;;;;99.17;93.50;;;;;;;;;;5004478;28;20462;-84
2023/05/22 12:15:24;;;;;;;245.47;233.47;;;;;;;;;;5009922;28;20435;-81
2023/05/22 12:17:54;;;;;;;70.60;66.03;;;;;;;;;;5000934;28;20502;-83
2023/05/22 12:20:20;;;;;;;38.97;35.53;;;;;;;;;;5004767;28;20594;-83
2023/05/22 12:22:46;;;;;;;60.37;56.07;;;;;;;;;;5010764;28;20586;-84
2023/05/22 12:25:15;;;;;;;44.33;40.93;;;;;;;;;;5003245;28;20453;-81
2023/05/22 12:27:43;;;;;;;130.00;122.80;;;;;;;;;;4993287;28;20455;-83
2023/05/22 12:30:12;;;;;;;614.17;576.50;;;;;;;;;;5015841;28;20446;-83
2023/05/22 12:32:39;;;;;;;39.80;36.50;;;;;;;;;;4982873;28;20547;-82
2023/05/22 12:35:05;;;;;;;34.87;31.97;;;;;;;;;;5014815;28;20451;-80
2023/05/22 12:37:33;;;;;;;41.13;37.60;;;;;;;;;;5014711;28;20595;-81
2023/05/22 12:40:00;;;;;;;47.83;43.83;;;;;;;;;;5003357;28;20487;-79
2023/05/22 12:42:26;;;;;;;72.20;67.37;;;;;;;;;;5026168;28;20455;-81
2023/05/22 12:44:53;;;;;;;50.57;46.27;;;;;;;;;;5021579;28;20465;-83
2023/05/22 12:47:19;;;;;;;51.67;47.03;;;;;;;;;;5032139;28;20497;-83
2023/05/22 12:49:45;;;;;;;45.20;41.23;;;;;;;;;;5010084;28;20475;-84
2023/05/22 12:52:12;;;;;;;44.10;40.17;;;;;;;;;;5009122;28;20759;-83
2023/05/22 12:54:38;;;;;;;50.90;46.87;;;;;;;;;;5008882;28;20451;-84
2023/05/22 12:57:04;;;;;;;45.93;42.03;;;;;;;;;;5007399;28;20471;-82
2023/05/22 12:59:30;;;;;;;51.17;46.83;;;;;;;;;;5006637;28;20791;-83
2023/05/22 13:02:00;;;;;;;162.87;153.47;;;;;;;;;;4991708;28;20460;-82
2023/05/22 13:04:27;;;;;;;105.90;98.90;;;;;;;;;;5005684;28;20986;-83
2023/05/22 13:06:55;;;;;;;56.40;51.70;;;;;;;;;;5000846;28;20546;-81
2023/05/22 13:09:21;;;;;;;47.43;43.30;;;;;;;;;;5005098;28;20419;-82
2023/05/22 13:11:47;;;;;;;63.30;57.80;;;;;;;;;;5006811;28;20742;-82
2023/05/22 13:14:17;;;;;;;51.90;47.60;;;;;;;;;;4989351;28;20499;-83
2023/05/22 13:16:43;;;;;;;49.30;44.97;;;;;;;;;;5009771;28;20982;-81
2023/05/22 13:19:09;;;;;;;46.43;42.37;;;;;;;;;;5005804;28;20408;-83
2023/05/22 13:21:38;;;;;;;51.87;47.27;;;;;;;;;;4991199;28;20447;-79
2023/05/22 13:24:10;;;;;;;75.80;70.43;;;;;;;;;;5003924;28;20858;-82
2023/05/22 13:26:36;;;;;;;53.40;48.50;;;;;;;;;;5002010;28;20812;-82
2023/05/22 13:29:03;;;;;;;50.03;45.53;;;;;;;;;;5006144;28;20454;-77
2023/05/22 13:31:32;;;;;;;116.83;109.50;;;;;;;;;;5003941;28;20440;-81
2023/05/22 13:33:57;;;;;;;114.40;107.57;;;;;;;;;;4995905;28;20467;-86
2023/05/22 13:36:23;;;;;;;67.10;62.33;;;;;;;;;;5005140;28;20467;-83
2023/05/22 13:38:50;;;;;;;78.17;72.20;;;;;;;;;;5001968;28;20444;-81
2023/05/22 13:41:16;;;;;;;57.03;52.23;;;;;;;;;;5003794;28;20427;-82
2023/05/22 13:43:42;;;;;;;63.63;58.10;;;;;;;;;;5010117;28;20440;-83
2023/05/22 13:46:08;;;;;;;89.87;84.03;;;;;;;;;;5009824;28;20481;-81
2023/05/22 13:48:34;;;;;;;64.43;59.80;;;;;;;;;;5013476;28;20476;-83
2023/05/22 13:51:00;;;;;;;97.90;92.00;;;;;;;;;;5012837;28;20467;-82
2023/05/22 13:53:26;;;;;;;134.60;127.27;;;;;;;;;;5008625;28;20796;-82
2023/05/22 13:55:53;;;;;;;62.67;57.57;;;;;;;;;;4987163;28;20881;-85
2023/05/22 13:58:19;;;;;;;88.20;82.83;;;;;;;;;;5016443;28;20439;-84
2023/05/22 14:00:45;;;;;;;84.27;78.90;;;;;;;;;;5005656;28;20436;-82
2023/05/22 14:03:16;;;;;;;70.87;64.63;;;;;;;;;;5012030;28;20437;-85
2023/05/22 14:05:42;;;;;;;90.63;84.27;;;;;;;;;;5006616;28;20720;-82
2023/05/22 14:08:10;;;;;;;138.60;130.43;;;;;;;;;;5007762;28;20435;-83
2023/05/22 14:10:37;;;;;;;57.60;53.33;;;;;;;;;;5008481;28;20485;-83
2023/05/22 14:13:03;;;;;;;45.93;41.80;;;;;;;;;;4996000;28;20447;-83
2023/05/22 14:15:29;;;;;;;43.87;39.90;;;;;;;;;;5010871;28;21397;-81
2023/05/22 14:17:56;;;;;;;39.10;35.70;;;;;;;;;;5008903;28;20607;-83
2023/05/22 14:20:22;;;;;;;47.07;42.43;;;;;;;;;;5001235;28;20419;-83
2023/05/22 14:22:48;;;;;;;35.00;32.00;;;;;;;;;;5011730;28;20810;-84